sensor_id;sensor_type;location;lat;lon;timestamp;P1;durP1;ratioP1;P2;durP2;ratioP2
67363;SDS011;54250;45.572;38.086;2022-08-18T00:01:18;32.55;;;14.43;;
67363;SDS011;54250;45.572;38.086;2022-08-18T00:03:44;34.67;;;14.98;;
67363;SDS011;54250;45.572;38.086;2022-08-18T00:06:10;27.58;;;14.13;;
67363;SDS011;54250;45.572;38.086;2022-08-18T00:08:37;26.20;;;11.68;;
67363;SDS011;54250;45.572;38.086;2022-08-18T00:11:03;28.42;;;13.20;;
67363;SDS011;54250;45.572;38.086;2022-08-18T00:13:30;27.33;;;13.75;;
67363;SDS011;54250;45.572;38.086;2022-08-18T00:15:56;30.02;;;13.75;;
67363;SDS011;54250;45.572;38.086;2022-08-18T00:18:23;22.55;;;12.30;;
67363;SDS011;54250;45.572;38.086;2022-08-18T00:20:49;31.17;;;14.45;;
67363;SDS011;54250;45.572;38.086;2022-08-18T00:23:15;28.15;;;13.90;;
67363;SDS011;54250;45.572;38.086;2022-08-18T00:25:41;27.23;;;13.23;;
67363;SDS011;54250;45.572;38.086;2022-08-18T00:28:07;25.33;;;13.70;;
67363;SDS011;54250;45.572;38.086;2022-08-18T00:30:33;25.67;;;12.25;;
67363;SDS011;54250;45.572;38.086;2022-08-18T00:32:59;31.52;;;13.55;;
67363;SDS011;54250;45.572;38.086;2022-08-18T00:35:31;19.67;;;11.50;;
67363;SDS011;54250;45.572;38.086;2022-08-18T00:37:59;22.20;;;11.52;;
67363;SDS011;54250;45.572;38.086;2022-08-18T00:40:29;27.33;;;12.45;;
67363;SDS011;54250;45.572;38.086;2022-08-18T00:43:05;24.73;;;12.90;;
67363;SDS011;54250;45.572;38.086;2022-08-18T00:45:37;29.90;;;14.82;;
67363;SDS011;54250;45.572;38.086;2022-08-18T00:48:06;34.67;;;15.35;;
67363;SDS011;54250;45.572;38.086;2022-08-18T00:55:36;27.55;;;14.35;;
67363;SDS011;54250;45.572;38.086;2022-08-18T00:58:06;33.00;;;13.90;;
67363;SDS011;54250;45.572;38.086;2022-08-18T01:00:36;28.60;;;13.52;;
67363;SDS011;54250;45.572;38.086;2022-08-18T01:03:03;29.38;;;13.50;;
67363;SDS011;54250;45.572;38.086;2022-08-18T01:05:35;32.63;;;14.40;;
67363;SDS011;54250;45.572;38.086;2022-08-18T01:08:06;32.55;;;15.00;;
67363;SDS011;54250;45.572;38.086;2022-08-18T01:10:36;29.48;;;14.70;;
67363;SDS011;54250;45.572;38.086;2022-08-18T01:13:03;37.22;;;15.60;;
67363;SDS011;54250;45.572;38.086;2022-08-18T01:15:30;33.95;;;16.50;;
67363;SDS011;54250;45.572;38.086;2022-08-18T01:17:57;37.97;;;15.93;;
67363;SDS011;54250;45.572;38.086;2022-08-18T01:20:58;40.78;;;14.75;;
67363;SDS011;54250;45.572;38.086;2022-08-18T01:23:47;39.60;;;15.82;;
67363;SDS011;54250;45.572;38.086;2022-08-18T01:26:14;45.05;;;18.48;;
67363;SDS011;54250;45.572;38.086;2022-08-18T01:28:42;36.80;;;16.52;;
67363;SDS011;54250;45.572;38.086;2022-08-18T01:31:12;42.47;;;16.40;;
67363;SDS011;54250;45.572;38.086;2022-08-18T01:33:53;48.37;;;19.90;;
67363;SDS011;54250;45.572;38.086;2022-08-18T01:36:21;43.65;;;18.00;;
67363;SDS011;54250;45.572;38.086;2022-08-18T01:38:49;45.72;;;18.67;;
67363;SDS011;54250;45.572;38.086;2022-08-18T01:41:17;53.95;;;21.48;;
67363;SDS011;54250;45.572;38.086;2022-08-18T01:43:45;52.15;;;19.83;;
67363;SDS011;54250;45.572;38.086;2022-08-18T01:46:13;62.08;;;22.92;;
67363;SDS011;54250;45.572;38.086;2022-08-18T01:48:44;52.85;;;21.23;;
67363;SDS011;54250;45.572;38.086;2022-08-18T01:51:13;53.03;;;21.77;;
67363;SDS011;54250;45.572;38.086;2022-08-18T01:53:40;48.38;;;20.75;;
67363;SDS011;54250;45.572;38.086;2022-08-18T01:56:06;51.78;;;20.67;;
67363;SDS011;54250;45.572;38.086;2022-08-18T01:58:34;45.08;;;19.20;;
67363;SDS011;54250;45.572;38.086;2022-08-18T02:01:01;40.47;;;18.13;;
67363;SDS011;54250;45.572;38.086;2022-08-18T02:03:33;43.03;;;16.65;;
67363;SDS011;54250;45.572;38.086;2022-08-18T02:06:02;37.67;;;17.80;;
67363;SDS011;54250;45.572;38.086;2022-08-18T02:08:31;55.40;;;19.80;;
67363;SDS011;54250;45.572;38.086;2022-08-18T02:10:57;59.83;;;19.25;;
67363;SDS011;54250;45.572;38.086;2022-08-18T02:13:24;45.08;;;19.58;;
67363;SDS011;54250;45.572;38.086;2022-08-18T02:15:51;48.15;;;19.33;;
67363;SDS011;54250;45.572;38.086;2022-08-18T02:18:18;54.20;;;21.42;;
67363;SDS011;54250;45.572;38.086;2022-08-18T02:20:46;45.30;;;20.00;;
67363;SDS011;54250;45.572;38.086;2022-08-18T02:23:12;43.95;;;19.25;;
67363;SDS011;54250;45.572;38.086;2022-08-18T02:25:41;46.20;;;18.55;;
67363;SDS011;54250;45.572;38.086;2022-08-18T02:28:08;42.72;;;19.50;;
67363;SDS011;54250;45.572;38.086;2022-08-18T02:30:34;75.70;;;25.38;;
67363;SDS011;54250;45.572;38.086;2022-08-18T02:33:04;98.13;;;31.55;;
67363;SDS011;54250;45.572;38.086;2022-08-18T02:35:32;99.80;;;31.75;;
67363;SDS011;54250;45.572;38.086;2022-08-18T02:37:59;120.15;;;37.97;;
67363;SDS011;54250;45.572;38.086;2022-08-18T02:40:26;130.55;;;40.53;;
67363;SDS011;54250;45.572;38.086;2022-08-18T02:42:53;157.23;;;44.17;;
67363;SDS011;54250;45.572;38.086;2022-08-18T02:45:20;139.90;;;41.80;;
67363;SDS011;54250;45.572;38.086;2022-08-18T02:47:51;131.38;;;38.83;;
67363;SDS011;54250;45.572;38.086;2022-08-18T02:50:18;116.70;;;38.90;;
67363;SDS011;54250;45.572;38.086;2022-08-18T02:52:44;110.05;;;34.17;;
67363;SDS011;54250;45.572;38.086;2022-08-18T02:55:11;89.65;;;32.92;;
67363;SDS011;54250;45.572;38.086;2022-08-18T02:57:44;95.90;;;32.58;;
67363;SDS011;54250;45.572;38.086;2022-08-18T03:00:12;92.82;;;32.42;;
67363;SDS011;54250;45.572;38.086;2022-08-18T03:02:44;97.85;;;33.30;;
67363;SDS011;54250;45.572;38.086;2022-08-18T03:05:11;107.60;;;37.60;;
67363;SDS011;54250;45.572;38.086;2022-08-18T03:07:38;97.25;;;36.05;;
67363;SDS011;54250;45.572;38.086;2022-08-18T03:10:04;88.75;;;35.60;;
67363;SDS011;54250;45.572;38.086;2022-08-18T03:12:31;64.85;;;28.80;;
67363;SDS011;54250;45.572;38.086;2022-08-18T03:14:57;61.50;;;28.98;;
67363;SDS011;54250;45.572;38.086;2022-08-18T03:17:26;74.90;;;30.23;;
67363;SDS011;54250;45.572;38.086;2022-08-18T03:19:53;84.78;;;32.35;;
67363;SDS011;54250;45.572;38.086;2022-08-18T03:22:19;69.07;;;30.65;;
67363;SDS011;54250;45.572;38.086;2022-08-18T03:24:45;48.90;;;23.67;;
67363;SDS011;54250;45.572;38.086;2022-08-18T03:27:11;38.72;;;20.42;;
67363;SDS011;54250;45.572;38.086;2022-08-18T03:29:37;31.23;;;18.63;;
67363;SDS011;54250;45.572;38.086;2022-08-18T03:32:04;39.60;;;19.08;;
67363;SDS011;54250;45.572;38.086;2022-08-18T03:34:31;33.85;;;19.95;;
67363;SDS011;54250;45.572;38.086;2022-08-18T03:36:58;39.85;;;18.77;;
67363;SDS011;54250;45.572;38.086;2022-08-18T03:39:24;33.58;;;18.05;;
67363;SDS011;54250;45.572;38.086;2022-08-18T03:41:52;33.42;;;17.15;;
67363;SDS011;54250;45.572;38.086;2022-08-18T03:44:20;28.73;;;17.20;;
67363;SDS011;54250;45.572;38.086;2022-08-18T03:46:47;29.48;;;15.98;;
67363;SDS011;54250;45.572;38.086;2022-08-18T03:49:14;27.30;;;15.57;;
67363;SDS011;54250;45.572;38.086;2022-08-18T03:51:43;27.20;;;14.85;;
67363;SDS011;54250;45.572;38.086;2022-08-18T03:54:13;20.15;;;11.77;;
67363;SDS011;54250;45.572;38.086;2022-08-18T03:56:41;17.60;;;10.68;;
67363;SDS011;54250;45.572;38.086;2022-08-18T03:59:10;19.20;;;9.90;;
67363;SDS011;54250;45.572;38.086;2022-08-18T04:04:10;19.55;;;9.23;;
67363;SDS011;54250;45.572;38.086;2022-08-18T04:06:43;21.67;;;9.68;;
67363;SDS011;54250;45.572;38.086;2022-08-18T04:09:16;16.90;;;9.13;;
67363;SDS011;54250;45.572;38.086;2022-08-18T04:11:43;28.85;;;10.13;;
67363;SDS011;54250;45.572;38.086;2022-08-18T04:14:10;19.13;;;11.00;;
67363;SDS011;54250;45.572;38.086;2022-08-18T04:16:38;21.63;;;11.88;;
67363;SDS011;54250;45.572;38.086;2022-08-18T04:19:06;19.60;;;9.15;;
67363;SDS011;54250;45.572;38.086;2022-08-18T04:21:34;14.20;;;8.25;;
67363;SDS011;54250;45.572;38.086;2022-08-18T04:24:05;13.15;;;7.95;;
67363;SDS011;54250;45.572;38.086;2022-08-18T04:26:33;13.82;;;6.88;;
67363;SDS011;54250;45.572;38.086;2022-08-18T04:29:01;16.70;;;7.47;;
67363;SDS011;54250;45.572;38.086;2022-08-18T04:31:29;14.43;;;7.63;;
67363;SDS011;54250;45.572;38.086;2022-08-18T04:33:57;14.23;;;6.85;;
67363;SDS011;54250;45.572;38.086;2022-08-18T04:36:24;16.48;;;8.00;;
67363;SDS011;54250;45.572;38.086;2022-08-18T04:38:52;15.48;;;7.68;;
67363;SDS011;54250;45.572;38.086;2022-08-18T04:41:19;14.02;;;8.15;;
67363;SDS011;54250;45.572;38.086;2022-08-18T04:43:48;12.35;;;7.22;;
67363;SDS011;54250;45.572;38.086;2022-08-18T04:46:16;18.40;;;8.10;;
67363;SDS011;54250;45.572;38.086;2022-08-18T04:48:42;14.45;;;7.63;;
67363;SDS011;54250;45.572;38.086;2022-08-18T04:51:09;17.08;;;8.10;;
67363;SDS011;54250;45.572;38.086;2022-08-18T04:53:37;15.55;;;6.28;;
67363;SDS011;54250;45.572;38.086;2022-08-18T04:58:52;14.82;;;6.10;;
67363;SDS011;54250;45.572;38.086;2022-08-18T05:01:21;11.45;;;6.30;;
67363;SDS011;54250;45.572;38.086;2022-08-18T05:03:50;13.90;;;6.03;;
67363;SDS011;54250;45.572;38.086;2022-08-18T05:06:18;12.00;;;6.35;;
67363;SDS011;54250;45.572;38.086;2022-08-18T05:08:45;8.60;;;4.90;;
67363;SDS011;54250;45.572;38.086;2022-08-18T05:11:14;8.65;;;4.95;;
67363;SDS011;54250;45.572;38.086;2022-08-18T05:13:40;14.10;;;4.45;;
67363;SDS011;54250;45.572;38.086;2022-08-18T05:16:07;7.80;;;4.72;;
67363;SDS011;54250;45.572;38.086;2022-08-18T05:18:33;11.35;;;4.15;;
67363;SDS011;54250;45.572;38.086;2022-08-18T05:21:07;15.27;;;4.15;;
67363;SDS011;54250;45.572;38.086;2022-08-18T05:23:44;13.88;;;4.15;;
67363;SDS011;54250;45.572;38.086;2022-08-18T05:26:12;11.13;;;4.10;;
67363;SDS011;54250;45.572;38.086;2022-08-18T05:28:40;11.07;;;3.90;;
67363;SDS011;54250;45.572;38.086;2022-08-18T05:31:17;7.95;;;3.38;;
67363;SDS011;54250;45.572;38.086;2022-08-18T05:33:50;13.40;;;3.60;;
67363;SDS011;54250;45.572;38.086;2022-08-18T05:36:37;8.40;;;3.63;;
67363;SDS011;54250;45.572;38.086;2022-08-18T05:39:26;5.15;;;3.17;;
67363;SDS011;54250;45.572;38.086;2022-08-18T05:44:34;9.68;;;3.42;;
67363;SDS011;54250;45.572;38.086;2022-08-18T05:47:10;13.55;;;3.72;;
67363;SDS011;54250;45.572;38.086;2022-08-18T05:49:55;7.63;;;3.47;;
67363;SDS011;54250;45.572;38.086;2022-08-18T05:55:17;7.97;;;3.55;;
67363;SDS011;54250;45.572;38.086;2022-08-18T05:58:08;10.25;;;3.17;;
67363;SDS011;54250;45.572;38.086;2022-08-18T06:00:49;6.85;;;2.95;;
67363;SDS011;54250;45.572;38.086;2022-08-18T06:03:25;6.15;;;2.50;;
67363;SDS011;54250;45.572;38.086;2022-08-18T06:06:00;5.35;;;2.38;;
67363;SDS011;54250;45.572;38.086;2022-08-18T06:08:32;5.97;;;2.23;;
67363;SDS011;54250;45.572;38.086;2022-08-18T06:11:12;3.72;;;2.42;;
67363;SDS011;54250;45.572;38.086;2022-08-18T06:13:39;12.07;;;2.70;;
67363;SDS011;54250;45.572;38.086;2022-08-18T06:16:17;8.65;;;2.55;;
67363;SDS011;54250;45.572;38.086;2022-08-18T06:25:13;7.22;;;2.60;;
67363;SDS011;54250;45.572;38.086;2022-08-18T06:30:25;8.60;;;3.08;;
67363;SDS011;54250;45.572;38.086;2022-08-18T06:33:03;6.30;;;3.00;;
67363;SDS011;54250;45.572;38.086;2022-08-18T06:38:14;15.45;;;2.72;;
67363;SDS011;54250;45.572;38.086;2022-08-18T06:46:45;9.57;;;2.38;;
67363;SDS011;54250;45.572;38.086;2022-08-18T06:49:30;8.63;;;2.53;;
67363;SDS011;54250;45.572;38.086;2022-08-18T06:52:21;7.65;;;2.63;;
67363;SDS011;54250;45.572;38.086;2022-08-18T06:54:50;3.72;;;2.88;;
67363;SDS011;54250;45.572;38.086;2022-08-18T06:57:25;3.88;;;2.70;;
67363;SDS011;54250;45.572;38.086;2022-08-18T06:59:56;14.38;;;3.15;;
67363;SDS011;54250;45.572;38.086;2022-08-18T07:02:28;6.65;;;2.83;;
67363;SDS011;54250;45.572;38.086;2022-08-18T07:05:01;19.35;;;2.85;;
67363;SDS011;54250;45.572;38.086;2022-08-18T07:07:36;9.50;;;3.03;;
67363;SDS011;54250;45.572;38.086;2022-08-18T07:10:26;9.40;;;2.88;;
67363;SDS011;54250;45.572;38.086;2022-08-18T07:15:41;9.23;;;2.60;;
67363;SDS011;54250;45.572;38.086;2022-08-18T07:18:13;6.90;;;3.10;;
67363;SDS011;54250;45.572;38.086;2022-08-18T07:20:48;9.38;;;3.45;;
67363;SDS011;54250;45.572;38.086;2022-08-18T07:23:34;4.63;;;2.42;;
67363;SDS011;54250;45.572;38.086;2022-08-18T07:26:10;7.55;;;2.60;;
67363;SDS011;54250;45.572;38.086;2022-08-18T07:28:42;11.32;;;2.97;;
67363;SDS011;54250;45.572;38.086;2022-08-18T07:31:18;7.35;;;2.80;;
67363;SDS011;54250;45.572;38.086;2022-08-18T07:34:12;4.97;;;2.45;;
67363;SDS011;54250;45.572;38.086;2022-08-18T07:39:50;9.90;;;3.10;;
67363;SDS011;54250;45.572;38.086;2022-08-18T07:42:43;4.53;;;2.70;;
67363;SDS011;54250;45.572;38.086;2022-08-18T07:45:18;6.40;;;3.00;;
67363;SDS011;54250;45.572;38.086;2022-08-18T07:47:56;6.20;;;2.70;;
67363;SDS011;54250;45.572;38.086;2022-08-18T07:56:15;8.45;;;2.95;;
67363;SDS011;54250;45.572;38.086;2022-08-18T08:01:54;6.53;;;2.78;;
67363;SDS011;54250;45.572;38.086;2022-08-18T08:04:43;5.88;;;2.65;;
67363;SDS011;54250;45.572;38.086;2022-08-18T08:07:29;5.90;;;2.95;;
67363;SDS011;54250;45.572;38.086;2022-08-18T08:10:12;5.40;;;2.80;;
67363;SDS011;54250;45.572;38.086;2022-08-18T08:15:54;8.45;;;2.65;;
67363;SDS011;54250;45.572;38.086;2022-08-18T08:18:38;11.88;;;2.80;;
67363;SDS011;54250;45.572;38.086;2022-08-18T08:21:19;4.75;;;2.83;;
67363;SDS011;54250;45.572;38.086;2022-08-18T08:23:59;9.40;;;3.03;;
67363;SDS011;54250;45.572;38.086;2022-08-18T08:30:04;4.70;;;2.28;;
67363;SDS011;54250;45.572;38.086;2022-08-18T08:35:34;7.57;;;2.70;;
67363;SDS011;54250;45.572;38.086;2022-08-18T08:38:20;17.52;;;3.30;;
67363;SDS011;54250;45.572;38.086;2022-08-18T08:41:00;16.58;;;3.05;;
67363;SDS011;54250;45.572;38.086;2022-08-18T08:43:33;7.85;;;2.58;;
67363;SDS011;54250;45.572;38.086;2022-08-18T08:46:21;9.02;;;2.70;;
67363;SDS011;54250;45.572;38.086;2022-08-18T08:48:55;8.68;;;2.78;;
67363;SDS011;54250;45.572;38.086;2022-08-18T08:57:16;8.50;;;2.40;;
67363;SDS011;54250;45.572;38.086;2022-08-18T08:59:43;3.92;;;2.60;;
67363;SDS011;54250;45.572;38.086;2022-08-18T09:05:17;4.53;;;2.63;;
67363;SDS011;54250;45.572;38.086;2022-08-18T09:11:29;9.35;;;2.40;;
67363;SDS011;54250;45.572;38.086;2022-08-18T09:14:11;4.20;;;2.50;;
67363;SDS011;54250;45.572;38.086;2022-08-18T09:19:30;6.25;;;2.40;;
67363;SDS011;54250;45.572;38.086;2022-08-18T09:38:30;4.15;;;2.47;;
67363;SDS011;54250;45.572;38.086;2022-08-18T09:41:24;4.90;;;2.35;;
67363;SDS011;54250;45.572;38.086;2022-08-18T09:44:07;5.07;;;2.55;;
67363;SDS011;54250;45.572;38.086;2022-08-18T09:51:48;7.22;;;2.50;;
67363;SDS011;54250;45.572;38.086;2022-08-18T09:54:17;6.03;;;2.42;;
67363;SDS011;54250;45.572;38.086;2022-08-18T10:02:08;7.75;;;2.30;;
67363;SDS011;54250;45.572;38.086;2022-08-18T10:04:37;5.15;;;2.75;;
67363;SDS011;54250;45.572;38.086;2022-08-18T10:15:41;5.13;;;2.67;;
67363;SDS011;54250;45.572;38.086;2022-08-18T10:31:30;2.92;;;2.47;;
67363;SDS011;54250;45.572;38.086;2022-08-18T10:42:40;4.82;;;2.63;;
67363;SDS011;54250;45.572;38.086;2022-08-18T10:45:24;3.28;;;2.35;;
67363;SDS011;54250;45.572;38.086;2022-08-18T10:50:30;3.47;;;2.47;;
67363;SDS011;54250;45.572;38.086;2022-08-18T10:58:15;5.50;;;3.42;;
67363;SDS011;54250;45.572;38.086;2022-08-18T11:07:07;6.32;;;2.63;;
67363;SDS011;54250;45.572;38.086;2022-08-18T11:09:29;9.25;;;2.80;;
67363;SDS011;54250;45.572;38.086;2022-08-18T11:11:58;3.20;;;2.50;;
67363;SDS011;54250;45.572;38.086;2022-08-18T11:19:53;6.35;;;2.80;;
67363;SDS011;54250;45.572;38.086;2022-08-18T11:22:25;5.00;;;2.60;;
67363;SDS011;54250;45.572;38.086;2022-08-18T11:24:56;3.45;;;2.92;;
67363;SDS011;54250;45.572;38.086;2022-08-18T11:27:28;8.10;;;2.85;;
67363;SDS011;54250;45.572;38.086;2022-08-18T11:30:01;8.75;;;2.55;;
67363;SDS011;54250;45.572;38.086;2022-08-18T11:32:31;4.63;;;2.55;;
67363;SDS011;54250;45.572;38.086;2022-08-18T11:35:12;4.22;;;2.70;;
67363;SDS011;54250;45.572;38.086;2022-08-18T11:53:25;3.47;;;2.67;;
67363;SDS011;54250;45.572;38.086;2022-08-18T11:59:03;3.77;;;2.80;;
67363;SDS011;54250;45.572;38.086;2022-08-18T12:01:38;7.70;;;3.00;;
67363;SDS011;54250;45.572;38.086;2022-08-18T12:07:08;3.63;;;3.05;;
67363;SDS011;54250;45.572;38.086;2022-08-18T12:09:46;8.52;;;3.35;;
67363;SDS011;54250;45.572;38.086;2022-08-18T12:12:33;9.48;;;3.30;;
67363;SDS011;54250;45.572;38.086;2022-08-18T12:20:10;6.00;;;3.03;;
67363;SDS011;54250;45.572;38.086;2022-08-18T12:22:37;13.10;;;3.30;;
67363;SDS011;54250;45.572;38.086;2022-08-18T12:25:07;9.35;;;3.00;;
67363;SDS011;54250;45.572;38.086;2022-08-18T12:27:36;6.72;;;3.10;;
67363;SDS011;54250;45.572;38.086;2022-08-18T12:30:02;14.93;;;2.97;;
67363;SDS011;54250;45.572;38.086;2022-08-18T12:32:30;6.03;;;3.45;;
67363;SDS011;54250;45.572;38.086;2022-08-18T12:34:58;3.42;;;2.95;;
67363;SDS011;54250;45.572;38.086;2022-08-18T12:37:26;5.80;;;2.80;;
67363;SDS011;54250;45.572;38.086;2022-08-18T12:39:53;6.18;;;2.90;;
67363;SDS011;54250;45.572;38.086;2022-08-18T12:42:22;5.85;;;3.20;;
67363;SDS011;54250;45.572;38.086;2022-08-18T12:44:48;3.88;;;3.10;;
67363;SDS011;54250;45.572;38.086;2022-08-18T12:47:20;4.40;;;2.97;;
67363;SDS011;54250;45.572;38.086;2022-08-18T12:49:49;6.10;;;3.07;;
67363;SDS011;54250;45.572;38.086;2022-08-18T12:52:15;6.90;;;3.03;;
67363;SDS011;54250;45.572;38.086;2022-08-18T12:54:42;6.93;;;3.47;;
67363;SDS011;54250;45.572;38.086;2022-08-18T12:57:25;4.22;;;3.10;;
67363;SDS011;54250;45.572;38.086;2022-08-18T12:59:52;5.53;;;3.20;;
67363;SDS011;54250;45.572;38.086;2022-08-18T13:02:19;3.88;;;2.90;;
67363;SDS011;54250;45.572;38.086;2022-08-18T13:04:46;14.40;;;3.95;;
67363;SDS011;54250;45.572;38.086;2022-08-18T13:07:12;4.03;;;3.08;;
67363;SDS011;54250;45.572;38.086;2022-08-18T13:09:40;4.28;;;2.90;;
67363;SDS011;54250;45.572;38.086;2022-08-18T13:12:08;6.45;;;3.30;;
67363;SDS011;54250;45.572;38.086;2022-08-18T13:14:35;9.00;;;3.15;;
67363;SDS011;54250;45.572;38.086;2022-08-18T13:17:02;5.93;;;2.80;;
67363;SDS011;54250;45.572;38.086;2022-08-18T13:19:28;4.75;;;3.00;;
67363;SDS011;54250;45.572;38.086;2022-08-18T13:21:55;6.55;;;2.85;;
67363;SDS011;54250;45.572;38.086;2022-08-18T13:24:21;6.47;;;3.25;;
67363;SDS011;54250;45.572;38.086;2022-08-18T13:26:47;9.80;;;3.00;;
67363;SDS011;54250;45.572;38.086;2022-08-18T13:29:14;6.93;;;3.55;;
67363;SDS011;54250;45.572;38.086;2022-08-18T13:31:42;9.60;;;3.28;;
67363;SDS011;54250;45.572;38.086;2022-08-18T13:34:09;7.88;;;4.03;;
67363;SDS011;54250;45.572;38.086;2022-08-18T13:36:35;4.50;;;3.00;;
67363;SDS011;54250;45.572;38.086;2022-08-18T13:39:11;3.97;;;3.03;;
67363;SDS011;54250;45.572;38.086;2022-08-18T13:41:42;11.73;;;3.30;;
67363;SDS011;54250;45.572;38.086;2022-08-18T13:44:10;4.30;;;3.20;;
67363;SDS011;54250;45.572;38.086;2022-08-18T13:46:39;7.25;;;3.58;;
67363;SDS011;54250;45.572;38.086;2022-08-18T13:49:15;11.63;;;3.60;;
67363;SDS011;54250;45.572;38.086;2022-08-18T13:51:46;7.45;;;2.88;;
67363;SDS011;54250;45.572;38.086;2022-08-18T13:54:18;5.82;;;3.20;;
67363;SDS011;54250;45.572;38.086;2022-08-18T13:56:47;3.55;;;2.90;;
67363;SDS011;54250;45.572;38.086;2022-08-18T13:59:14;4.75;;;2.88;;
67363;SDS011;54250;45.572;38.086;2022-08-18T14:01:41;6.03;;;2.80;;
67363;SDS011;54250;45.572;38.086;2022-08-18T14:04:09;4.57;;;2.90;;
67363;SDS011;54250;45.572;38.086;2022-08-18T14:06:37;6.50;;;3.30;;
67363;SDS011;54250;45.572;38.086;2022-08-18T14:09:03;5.85;;;3.38;;
67363;SDS011;54250;45.572;38.086;2022-08-18T14:11:30;7.95;;;3.30;;
67363;SDS011;54250;45.572;38.086;2022-08-18T14:13:58;8.00;;;2.92;;
67363;SDS011;54250;45.572;38.086;2022-08-18T14:16:25;5.55;;;3.40;;
67363;SDS011;54250;45.572;38.086;2022-08-18T14:18:52;9.10;;;3.20;;
67363;SDS011;54250;45.572;38.086;2022-08-18T14:21:39;6.43;;;3.30;;
67363;SDS011;54250;45.572;38.086;2022-08-18T14:24:27;7.13;;;3.25;;
67363;SDS011;54250;45.572;38.086;2022-08-18T14:27:12;4.75;;;3.30;;
67363;SDS011;54250;45.572;38.086;2022-08-18T14:29:38;7.40;;;3.22;;
67363;SDS011;54250;45.572;38.086;2022-08-18T14:32:06;10.55;;;3.70;;
67363;SDS011;54250;45.572;38.086;2022-08-18T14:34:33;7.60;;;3.30;;
67363;SDS011;54250;45.572;38.086;2022-08-18T14:36:59;12.68;;;3.20;;
67363;SDS011;54250;45.572;38.086;2022-08-18T14:39:26;11.70;;;3.42;;
67363;SDS011;54250;45.572;38.086;2022-08-18T14:41:52;12.32;;;3.50;;
67363;SDS011;54250;45.572;38.086;2022-08-18T14:44:18;7.30;;;3.20;;
67363;SDS011;54250;45.572;38.086;2022-08-18T14:46:44;9.27;;;2.75;;
67363;SDS011;54250;45.572;38.086;2022-08-18T14:49:12;14.55;;;3.75;;
67363;SDS011;54250;45.572;38.086;2022-08-18T14:51:39;7.55;;;3.38;;
67363;SDS011;54250;45.572;38.086;2022-08-18T14:54:10;4.13;;;3.53;;
67363;SDS011;54250;45.572;38.086;2022-08-18T14:56:36;8.10;;;3.17;;
67363;SDS011;54250;45.572;38.086;2022-08-18T14:59:03;7.97;;;3.30;;
67363;SDS011;54250;45.572;38.086;2022-08-18T15:01:38;10.90;;;4.32;;
67363;SDS011;54250;45.572;38.086;2022-08-18T15:04:04;9.10;;;3.80;;
67363;SDS011;54250;45.572;38.086;2022-08-18T15:06:30;7.40;;;3.50;;
67363;SDS011;54250;45.572;38.086;2022-08-18T15:08:56;6.07;;;3.42;;
67363;SDS011;54250;45.572;38.086;2022-08-18T15:11:23;23.35;;;5.10;;
67363;SDS011;54250;45.572;38.086;2022-08-18T15:13:49;25.65;;;4.25;;
67363;SDS011;54250;45.572;38.086;2022-08-18T15:16:15;7.55;;;3.67;;
67363;SDS011;54250;45.572;38.086;2022-08-18T15:18:42;6.90;;;3.45;;
67363;SDS011;54250;45.572;38.086;2022-08-18T15:21:10;5.13;;;3.35;;
67363;SDS011;54250;45.572;38.086;2022-08-18T15:23:55;8.30;;;3.38;;
67363;SDS011;54250;45.572;38.086;2022-08-18T15:26:39;6.20;;;3.30;;
67363;SDS011;54250;45.572;38.086;2022-08-18T15:29:08;9.60;;;3.67;;
67363;SDS011;54250;45.572;38.086;2022-08-18T15:31:35;11.23;;;4.28;;
67363;SDS011;54250;45.572;38.086;2022-08-18T15:34:03;6.18;;;3.78;;
67363;SDS011;54250;45.572;38.086;2022-08-18T15:36:30;11.13;;;4.20;;
67363;SDS011;54250;45.572;38.086;2022-08-18T15:38:57;10.40;;;4.20;;
67363;SDS011;54250;45.572;38.086;2022-08-18T15:41:32;14.55;;;4.85;;
67363;SDS011;54250;45.572;38.086;2022-08-18T15:44:09;8.82;;;4.25;;
67363;SDS011;54250;45.572;38.086;2022-08-18T15:46:36;9.50;;;4.43;;
67363;SDS011;54250;45.572;38.086;2022-08-18T15:49:03;26.92;;;5.25;;
67363;SDS011;54250;45.572;38.086;2022-08-18T15:51:34;13.52;;;5.05;;
67363;SDS011;54250;45.572;38.086;2022-08-18T15:54:02;23.45;;;5.28;;
67363;SDS011;54250;45.572;38.086;2022-08-18T15:56:29;25.92;;;5.80;;
67363;SDS011;54250;45.572;38.086;2022-08-18T15:58:56;11.55;;;4.70;;
67363;SDS011;54250;45.572;38.086;2022-08-18T16:01:23;11.65;;;4.75;;
67363;SDS011;54250;45.572;38.086;2022-08-18T16:03:50;15.43;;;4.57;;
67363;SDS011;54250;45.572;38.086;2022-08-18T16:06:21;11.95;;;5.20;;
67363;SDS011;54250;45.572;38.086;2022-08-18T16:08:50;7.80;;;4.82;;
67363;SDS011;54250;45.572;38.086;2022-08-18T16:11:17;12.73;;;5.10;;
67363;SDS011;54250;45.572;38.086;2022-08-18T16:13:46;17.88;;;5.57;;
67363;SDS011;54250;45.572;38.086;2022-08-18T16:16:19;8.30;;;4.85;;
67363;SDS011;54250;45.572;38.086;2022-08-18T16:18:48;11.18;;;5.28;;
67363;SDS011;54250;45.572;38.086;2022-08-18T16:21:16;18.33;;;5.10;;
67363;SDS011;54250;45.572;38.086;2022-08-18T16:23:45;23.20;;;5.65;;
67363;SDS011;54250;45.572;38.086;2022-08-18T16:26:13;21.35;;;5.68;;
67363;SDS011;54250;45.572;38.086;2022-08-18T16:28:41;13.32;;;4.95;;
67363;SDS011;54250;45.572;38.086;2022-08-18T16:31:10;11.55;;;5.70;;
67363;SDS011;54250;45.572;38.086;2022-08-18T16:33:41;11.90;;;6.15;;
67363;SDS011;54250;45.572;38.086;2022-08-18T16:36:08;17.95;;;5.32;;
67363;SDS011;54250;45.572;38.086;2022-08-18T16:38:36;14.02;;;6.43;;
67363;SDS011;54250;45.572;38.086;2022-08-18T16:41:03;9.18;;;5.55;;
67363;SDS011;54250;45.572;38.086;2022-08-18T16:43:31;12.90;;;5.82;;
67363;SDS011;54250;45.572;38.086;2022-08-18T16:45:58;18.88;;;9.75;;
67363;SDS011;54250;45.572;38.086;2022-08-18T16:48:27;29.88;;;17.80;;
67363;SDS011;54250;45.572;38.086;2022-08-18T16:50:54;219.93;;;114.35;;
67363;SDS011;54250;45.572;38.086;2022-08-18T16:53:20;138.30;;;67.43;;
67363;SDS011;54250;45.572;38.086;2022-08-18T16:55:46;77.45;;;39.55;;
67363;SDS011;54250;45.572;38.086;2022-08-18T16:58:14;50.38;;;23.77;;
67363;SDS011;54250;45.572;38.086;2022-08-18T17:01:00;24.50;;;11.52;;
67363;SDS011;54250;45.572;38.086;2022-08-18T17:03:45;14.43;;;10.02;;
67363;SDS011;54250;45.572;38.086;2022-08-18T17:06:30;116.25;;;48.80;;
67363;SDS011;54250;45.572;38.086;2022-08-18T17:08:57;157.45;;;73.35;;
67363;SDS011;54250;45.572;38.086;2022-08-18T17:11:24;54.85;;;27.33;;
67363;SDS011;54250;45.572;38.086;2022-08-18T17:13:55;30.67;;;16.23;;
67363;SDS011;54250;45.572;38.086;2022-08-18T17:16:23;24.92;;;14.02;;
67363;SDS011;54250;45.572;38.086;2022-08-18T17:18:50;20.77;;;12.65;;
67363;SDS011;54250;45.572;38.086;2022-08-18T17:21:20;22.17;;;11.32;;
67363;SDS011;54250;45.572;38.086;2022-08-18T17:23:50;20.52;;;8.65;;
67363;SDS011;54250;45.572;38.086;2022-08-18T17:29:10;23.15;;;8.60;;
67363;SDS011;54250;45.572;38.086;2022-08-18T17:31:45;17.73;;;8.30;;
67363;SDS011;54250;45.572;38.086;2022-08-18T17:34:45;28.73;;;8.15;;
67363;SDS011;54250;45.572;38.086;2022-08-18T17:37:15;23.98;;;7.50;;
67363;SDS011;54250;45.572;38.086;2022-08-18T17:39:54;23.98;;;7.70;;
67363;SDS011;54250;45.572;38.086;2022-08-18T17:42:28;24.70;;;7.07;;
67363;SDS011;54250;45.572;38.086;2022-08-18T17:44:57;17.27;;;7.85;;